Time;durP1;ratioP1;P1;durP2;ratioP2;P2;SDS_P1;SDS_P2;PMS_P1;PMS_P2;Temp;Humidity;BMP_temperature;BMP_pressure;BME280_temperature;BME280_humidity;BME280_pressure;Samples;Min_cycle;Max_cycle;Signal;HPM_P1;HPM_P2
2021/08/13 00:00:21;;;;;;;7.32;5.38;;;;;;;15.09;96.19;101304.63;4978780;28;20053;-81
2021/08/13 00:02:48;;;;;;;5.90;5.30;;;;;;;15.03;95.89;101311.00;4971670;28;20045;-81
2021/08/13 00:05:15;;;;;;;5.47;4.97;;;;;;;14.99;97.16;101312.00;4976148;28;20157;-82
2021/08/13 00:07:44;;;;;;;6.30;5.07;;;;;;;15.01;96.89;101314.63;5057763;23;20052;-82
2021/08/13 00:10:11;;;;;;;6.05;5.45;;;;;;;14.96;97.73;101306.75;5015276;28;20052;-82
2021/08/13 00:12:38;;;;;;;6.70;4.90;;;;;;;14.92;97.86;101311.31;4999635;28;20044;-83
2021/08/13 00:15:05;;;;;;;6.15;5.55;;;;;;;14.88;97.94;101307.00;5005464;28;20422;-82
2021/08/13 00:17:32;;;;;;;7.15;6.45;;;;;;;14.90;97.52;101313.13;5012524;28;20045;-82
2021/08/13 00:19:59;;;;;;;6.43;5.25;;;;;;;14.86;97.24;101307.94;5012916;28;20579;-83
2021/08/13 00:22:29;;;;;;;5.78;5.18;;;;;;;14.88;96.83;101301.69;4997438;28;20046;-84
2021/08/13 00:25:00;;;;;;;;;;;;;;;14.83;96.94;101310.69;5015546;28;20033;-83
2021/08/13 00:27:27;;;;;;;6.13;5.25;;;;;;;14.84;96.33;101309.78;5020784;28;19925;-82
2021/08/13 00:29:53;;;;;;;7.82;5.68;;;;;;;14.86;95.60;101307.94;4996814;28;20056;-83
2021/08/13 00:32:21;;;;;;;5.93;5.32;;;;;;;14.78;96.26;101310.81;5012588;28;20045;-82
2021/08/13 00:34:49;;;;;;;5.90;5.40;;;;;;;14.75;95.56;101310.03;5015112;28;20044;-81
2021/08/13 00:37:17;;;;;;;6.00;5.40;;;;;;;14.72;96.47;101316.31;4991758;28;20036;-82
2021/08/13 00:39:44;;;;;;;5.90;5.30;;;;;;;14.75;96.96;101312.69;4996271;28;20053;-82
2021/08/13 00:42:10;;;;;;;7.82;5.85;;;;;;;14.74;97.69;101318.94;5013211;28;20051;-81
2021/08/13 00:44:37;;;;;;;6.85;5.47;;;;;;;14.73;97.51;101319.84;4986194;28;20540;-82
2021/08/13 00:47:04;;;;;;;6.43;5.38;;;;;;;14.77;98.17;101313.50;5003890;28;20494;-82
2021/08/13 00:49:31;;;;;;;5.72;5.13;;;;;;;14.77;98.40;101318.84;5029238;28;20033;-82
2021/08/13 00:51:57;;;;;;;6.20;5.60;;;;;;;14.78;98.55;101321.44;5011324;28;20049;-82
2021/08/13 00:54:24;;;;;;;7.13;5.47;;;;;;;14.81;98.02;101315.19;4996345;28;20041;-82
2021/08/13 00:56:51;;;;;;;6.93;5.80;;;;;;;14.86;97.56;101315.91;5001442;28;20037;-81
2021/08/13 00:59:18;;;;;;;7.68;5.70;;;;;;;14.85;95.52;101315.03;5026286;28;20048;-82
2021/08/13 01:01:44;;;;;;;6.63;5.53;;;;;;;14.87;96.91;101313.22;5002088;28;20091;-82
2021/08/13 01:04:11;;;;;;;6.70;5.32;;;;;;;14.87;96.45;101313.22;5020995;28;20048;-81
2021/08/13 01:06:38;;;;;;;7.38;6.32;;;;;;;14.88;96.74;101312.31;4992729;28;20045;-83
2021/08/13 01:09:05;;;;;;;6.57;5.68;;;;;;;14.83;97.20;101313.34;5027833;28;20049;-82
2021/08/13 01:11:52;;;;;;;6.38;5.53;;;;;;;14.78;96.33;101320.56;5017300;28;20661;-82
2021/08/13 01:17:21;;;;;;;7.10;5.72;;;;;;;14.70;97.58;101311.94;4912680;29;20047;-83
2021/08/13 01:20:07;;;;;;;6.35;5.40;;;;;;;14.67;97.61;101310.22;4939545;29;20055;-83
2021/08/13 01:22:49;;;;;;;6.28;5.68;;;;;;;14.63;97.28;101314.78;4907239;29;20036;-82
2021/08/13 01:25:22;;;;;;;5.80;5.30;;;;;;;14.59;97.33;101307.78;4898745;29;20040;-83
2021/08/13 01:27:51;;;;;;;9.25;6.40;;;;;;;14.57;97.36;101306.94;4908391;29;20744;-83
2021/08/13 01:30:19;;;;;;;6.03;5.43;;;;;;;14.57;97.82;101311.41;4915643;29;20056;-84
2021/08/13 01:33:08;;;;;;;5.82;5.22;;;;;;;14.54;97.51;101312.34;4909323;29;20048;-84
2021/08/13 01:35:41;;;;;;;6.32;5.70;;;;;;;14.53;96.92;101307.94;4911260;29;20509;-83
2021/08/13 01:38:11;;;;;;;6.18;5.57;;;;;;;14.48;97.43;101307.19;4887216;29;20482;-85
2021/08/13 01:40:42;;;;;;;7.20;5.25;;;;;;;14.44;98.04;101312.59;4894684;29;20055;-84
2021/08/13 01:43:10;;;;;;;5.85;5.20;;;;;;;14.37;98.66;101307.41;4871052;29;20131;-84
2021/08/13 01:45:36;;;;;;;6.90;6.05;;;;;;;14.42;98.55;101303.78;4913288;29;20071;-83
2021/08/13 01:48:04;;;;;;;6.88;5.97;;;;;;;14.38;98.57;101300.34;4881642;29;20067;-84
2021/08/13 01:50:31;;;;;;;6.70;5.93;;;;;;;14.42;98.58;101295.81;4883249;29;20049;-84
2021/08/13 01:52:59;;;;;;;6.68;5.97;;;;;;;14.43;98.62;101290.44;4902699;29;20051;-83
2021/08/13 01:55:26;;;;;;;7.20;5.78;;;;;;;14.37;98.51;101288.81;4872543;29;20682;-84
2021/08/13 01:57:53;;;;;;;6.75;6.13;;;;;;;14.36;98.33;101291.50;4899721;29;20048;-82
2021/08/13 02:00:21;;;;;;;6.22;5.63;;;;;;;14.34;98.04;101288.03;4885848;29;20083;-81
2021/08/13 02:02:48;;;;;;;8.50;6.13;;;;;;;14.35;97.04;101287.13;4882548;29;20045;-83
2021/08/13 02:05:18;;;;;;;7.70;6.20;;;;;;;14.34;97.59;101282.72;4907469;29;20041;-83
2021/08/13 02:07:45;;;;;;;8.15;6.53;;;;;;;14.23;98.08;101287.44;4892330;29;20040;-79
2021/08/13 02:10:12;;;;;;;8.63;6.55;;;;;;;14.20;98.06;101284.84;4911845;29;20450;-81
2021/08/13 02:12:39;;;;;;;9.25;6.78;;;;;;;14.21;97.53;101279.53;4880726;29;20055;-79
2021/08/13 02:15:08;;;;;;;6.78;6.03;;;;;;;14.15;97.60;101276.13;4891466;29;20489;-81
2021/08/13 02:17:39;;;;;;;6.60;6.00;;;;;;;14.26;96.81;101276.72;4909620;29;20040;-80
2021/08/13 02:20:12;;;;;;;7.30;6.10;;;;;;;14.18;96.97;101281.38;4894931;29;20048;-82
2021/08/13 02:22:39;;;;;;;6.90;5.72;;;;;;;14.13;97.61;101278.84;4917805;29;20095;-81
2021/08/13 02:25:06;;;;;;;7.70;6.43;;;;;;;14.06;98.32;101286.09;4895169;29;20657;-81
2021/08/13 02:27:33;;;;;;;7.10;6.40;;;;;;;14.07;98.12;101281.66;4883185;29;20044;-81
2021/08/13 02:29:59;;;;;;;6.10;5.50;;;;;;;14.06;98.91;101282.56;4881320;29;20096;-82
2021/08/13 02:32:28;;;;;;;9.68;6.82;;;;;;;14.07;98.23;101284.31;4922496;29;20040;-82
2021/08/13 02:34:55;;;;;;;7.32;5.97;;;;;;;14.03;98.75;101278.16;4883105;29;20061;-83
2021/08/13 02:37:44;;;;;;;7.22;5.95;;;;;;;14.04;99.14;101281.69;4884945;29;20493;-80
2021/08/13 02:40:14;;;;;;;6.60;5.82;;;;;;;14.01;99.93;101277.34;4913399;29;20052;-79
2021/08/13 02:42:44;;;;;;;6.80;6.03;;;;;;;14.03;99.90;101279.94;4922868;29;20131;-83
2021/08/13 02:45:14;;;;;;;6.95;5.95;;;;;;;14.00;99.87;101291.53;4877701;29;20036;-79
2021/08/13 02:47:43;;;;;;;7.72;6.90;;;;;;;14.07;100.00;101281.66;4898308;29;20044;-82
2021/08/13 02:50:11;;;;;;;8.57;6.10;;;;;;;14.06;100.00;101287.88;4912427;29;20127;-80
2021/08/13 02:52:44;;;;;;;10.10;6.72;;;;;;;14.04;100.00;101277.28;4865648;29;20040;-83
2021/08/13 02:55:13;;;;;;;6.73;6.00;;;;;;;14.00;100.00;101285.34;4911371;29;20048;-81
2021/08/13 02:57:40;;;;;;;6.82;6.13;;;;;;;13.95;100.00;101271.31;4882668;29;20300;-83
2021/08/13 03:00:07;;;;;;;10.85;8.13;;;;;;;14.03;100.00;101274.63;4899713;29;20060;-81
2021/08/13 03:02:35;;;;;;;10.52;7.40;;;;;;;14.02;100.00;101276.44;4879037;29;20506;-81
2021/08/13 03:05:03;;;;;;;8.75;7.50;;;;;;;13.98;100.00;101277.44;4898050;29;20044;-79
2021/08/13 03:07:30;;;;;;;7.28;6.43;;;;;;;14.00;100.00;101282.69;4900579;29;20063;-81
2021/08/13 03:09:57;;;;;;;8.48;6.32;;;;;;;14.03;100.00;101287.94;4866399;29;20036;-79
2021/08/13 03:12:24;;;;;;;8.15;7.35;;;;;;;14.01;100.00;101282.66;4869627;29;20052;-82
2021/08/13 03:14:51;;;;;;;6.80;5.85;;;;;;;14.02;100.00;101292.38;4880895;29;20460;-81
2021/08/13 03:17:18;;;;;;;7.55;6.22;;;;;;;14.05;100.00;101281.69;4895678;29;20070;-83
2021/08/13 03:19:47;;;;;;;7.22;6.18;;;;;;;14.03;100.00;101283.47;4884250;29;20602;-83
2021/08/13 03:22:14;;;;;;;6.97;6.28;;;;;;;13.99;100.00;101271.19;4887609;29;20398;-81
2021/08/13 03:24:41;;;;;;;8.82;5.90;;;;;;;13.92;100.00;101277.56;4908440;29;20040;-80
2021/08/13 03:27:08;;;;;;;8.57;6.38;;;;;;;13.92;100.00;101266.94;4897827;29;20048;-80
2021/08/13 03:29:34;;;;;;;7.00;6.30;;;;;;;13.97;100.00;101273.03;4906188;29;20511;-83
2021/08/13 03:32:04;;;;;;;6.72;5.97;;;;;;;14.00;100.00;101272.06;4913973;29;20063;-80
2021/08/13 03:34:31;;;;;;;6.65;5.95;;;;;;;13.96;100.00;101283.69;4874765;29;20459;-80
2021/08/13 03:36:58;;;;;;;6.88;6.18;;;;;;;13.95;100.00;101273.97;4867604;29;20101;-82
2021/08/13 03:39:24;;;;;;;8.43;6.43;;;;;;;13.94;100.00;101273.09;4896880;29;20056;-83
2021/08/13 03:41:51;;;;;;;7.55;6.60;;;;;;;13.90;100.00;101279.41;4899134;29;20119;-82
2021/08/13 03:44:18;;;;;;;6.78;6.07;;;;;;;13.91;100.00;101288.25;4908071;29;20085;-81
2021/08/13 03:46:44;;;;;;;6.95;5.70;;;;;;;13.92;100.00;101280.22;4898727;29;20044;-83
2021/08/13 03:49:11;;;;;;;9.85;7.18;;;;;;;13.93;100.00;101281.97;4903769;29;20048;-83
2021/08/13 03:51:38;;;;;;;8.73;7.05;;;;;;;13.94;100.00;101280.19;4880622;29;20102;-81
2021/08/13 03:54:05;;;;;;;10.43;6.68;;;;;;;14.00;100.00;101280.03;4923645;29;20044;-81
2021/08/13 03:56:32;;;;;;;7.15;6.45;;;;;;;13.96;100.00;101275.72;4921981;29;20044;-79
2021/08/13 03:59:00;;;;;;;7.20;6.50;;;;;;;13.96;100.00;101270.41;4923404;29;20053;-83
2021/08/13 04:01:27;;;;;;;7.70;6.95;;;;;;;13.95;100.00;101264.19;4908838;29;20056;-82
2021/08/13 04:03:54;;;;;;;7.45;6.53;;;;;;;13.95;100.00;101271.31;4881548;29;20043;-80
2021/08/13 04:06:21;;;;;;;7.88;6.65;;;;;;;13.93;100.00;101275.78;4889513;29;20047;-81
2021/08/13 04:08:48;;;;;;;6.60;6.00;;;;;;;13.94;100.00;101267.78;4898458;29;20055;-80
2021/08/13 04:11:14;;;;;;;7.22;6.53;;;;;;;13.92;100.00;101277.56;4910593;29;20048;-81
2021/08/13 04:13:41;;;;;;;8.05;6.57;;;;;;;13.96;100.00;101281.91;4868864;29;20096;-83
2021/08/13 04:16:08;;;;;;;7.80;6.15;;;;;;;14.02;100.00;101281.75;4896700;29;20044;-83
2021/08/13 04:18:34;;;;;;;6.78;5.88;;;;;;;14.00;100.00;101283.56;4897087;29;20044;-80
2021/08/13 04:21:01;;;;;;;7.45;6.75;;;;;;;13.98;100.00;101285.41;4894536;29;20074;-82
2021/08/13 04:23:28;;;;;;;7.13;6.03;;;;;;;14.02;100.00;101283.53;4886000;29;20055;-83
2021/08/13 04:25:54;;;;;;;8.23;6.70;;;;;;;14.04;100.00;101281.69;4902624;29;20045;-79
2021/08/13 04:28:21;;;;;;;8.68;6.53;;;;;;;14.11;100.00;101280.63;4884458;29;20044;-82
2021/08/13 04:30:48;;;;;;;9.40;6.65;;;;;;;14.17;100.00;101280.50;4867207;29;20367;-83
2021/08/13 04:33:14;;;;;;;7.60;6.47;;;;;;;14.23;100.00;101282.13;4912447;29;20075;-82
2021/08/13 04:35:41;;;;;;;8.30;7.05;;;;;;;14.24;100.00;101278.56;4893677;29;20088;-80
2021/08/13 04:38:08;;;;;;;7.40;6.43;;;;;;;14.25;100.00;101281.16;4881936;29;20130;-83
2021/08/13 04:40:34;;;;;;;9.23;7.03;;;;;;;14.28;100.00;101275.75;4921197;29;20047;-83
2021/08/13 04:43:01;;;;;;;7.95;6.78;;;;;;;14.31;100.00;101277.50;4866335;29;20049;-81
2021/08/13 04:45:28;;;;;;;7.63;6.82;;;;;;;14.35;100.00;101273.81;4883081;29;20065;-82
2021/08/13 04:47:55;;;;;;;8.60;6.63;;;;;;;14.36;100.00;101264.94;4905274;29;20093;-83
2021/08/13 04:50:22;;;;;;;8.68;7.00;;;;;;;14.35;100.00;101264.06;4901407;29;20056;-81
2021/08/13 04:52:50;;;;;;;9.00;6.82;;;;;;;14.44;100.00;101262.06;4905950;29;20056;-83
2021/08/13 04:55:24;;;;;;;8.48;7.28;;;;;;;14.56;100.00;101267.97;4888237;29;20037;-81
2021/08/13 04:57:52;;;;;;;8.98;7.18;;;;;;;14.63;100.00;101274.88;4885570;29;20052;-83
2021/08/13 05:00:19;;;;;;;8.10;7.28;;;;;;;14.74;100.00;101279.03;4901584;29;20151;-84
2021/08/13 05:02:46;;;;;;;8.60;7.70;;;;;;;14.82;100.00;101285.00;4874204;29;20048;-82
2021/08/13 05:05:14;;;;;;;8.07;7.28;;;;;;;14.91;100.00;101277.63;4903391;29;20493;-81
2021/08/13 05:07:41;;;;;;;8.65;7.75;;;;;;;15.01;100.00;101272.91;4906869;29;20044;-82
2021/08/13 05:10:10;;;;;;;10.05;7.82;;;;;;;15.07;100.00;101267.44;4884150;29;20052;-83
2021/08/13 05:12:37;;;;;;;8.18;7.38;;;;;;;15.11;100.00;101268.19;4888600;29;20073;-84
2021/08/13 05:15:05;;;;;;;9.23;6.75;;;;;;;15.16;99.97;101261.81;4870686;29;20621;-82
2021/08/13 05:17:32;;;;;;;8.13;6.95;;;;;;;15.23;100.00;101262.53;4920170;29;20675;-80
2021/08/13 05:19:59;;;;;;;8.38;7.57;;;;;;;15.25;100.00;101265.13;4888384;29;20060;-83
2021/08/13 05:22:26;;;;;;;7.47;6.78;;;;;;;15.27;100.00;101258.84;4908242;29;20044;-84
2021/08/13 05:24:52;;;;;;;7.82;7.03;;;;;;;15.29;100.00;101266.75;4868007;29;20044;-80
2021/08/13 05:27:19;;;;;;;7.28;6.57;;;;;;;15.26;100.00;101256.22;4907679;29;20127;-84
2021/08/13 05:29:46;;;;;;;7.97;7.15;;;;;;;15.28;100.00;101270.34;4883436;29;20052;-84
2021/08/13 05:32:12;;;;;;;7.05;6.35;;;;;;;15.32;100.00;101274.69;4884409;29;20040;-81
2021/08/13 05:34:39;;;;;;;7.65;6.85;;;;;;;15.34;100.00;101273.72;4913788;29;20073;-82
2021/08/13 05:37:06;;;;;;;8.43;6.78;;;;;;;15.38;100.00;101277.13;4897334;29;20040;-84
2021/08/13 05:39:32;;;;;;;7.70;6.90;;;;;;;15.41;100.00;101283.25;4903697;29;20116;-84
2021/08/13 05:41:59;;;;;;;7.03;6.38;;;;;;;15.45;100.00;101273.38;4905036;29;20045;-82
2021/08/13 05:44:26;;;;;;;7.35;6.65;;;;;;;15.49;100.00;101275.91;4911078;29;20048;-83
2021/08/13 05:46:52;;;;;;;7.90;7.10;;;;;;;15.57;100.00;101285.44;4928752;29;20057;-83
2021/08/13 05:49:19;;;;;;;9.07;7.57;;;;;;;15.62;100.00;101284.41;4906590;29;20063;-84
2021/08/13 05:51:46;;;;;;;7.53;6.82;;;;;;;15.72;100.00;101283.22;4906773;29;20048;-83
2021/08/13 05:54:12;;;;;;;9.07;7.80;;;;;;;15.82;100.00;101288.25;4904261;29;20055;-84
2021/08/13 05:56:39;;;;;;;9.30;6.57;;;;;;;15.90;100.00;101281.75;4872409;29;20043;-81
2021/08/13 05:59:06;;;;;;;7.80;6.65;;;;;;;15.93;100.00;101281.63;4872199;29;20040;-81
2021/08/13 06:01:32;;;;;;;7.95;7.03;;;;;;;16.08;100.00;101274.94;4871007;29;20116;-84
2021/08/13 06:04:00;;;;;;;8.70;6.72;;;;;;;16.17;100.00;101281.75;4905373;29;20048;-84
2021/08/13 06:06:27;;;;;;;7.65;6.90;;;;;;;16.31;99.93;101291.03;4913764;29;20644;-83
2021/08/13 06:08:54;;;;;;;7.85;6.57;;;;;;;16.45;99.94;101295.00;4920505;29;20056;-79
2021/08/13 06:11:20;;;;;;;7.68;6.82;;;;;;;16.58;99.54;101283.00;4886485;29;20469;-84
2021/08/13 06:13:47;;;;;;;8.00;7.20;;;;;;;16.70;99.30;101282.56;4925297;29;20037;-82
2021/08/13 06:16:20;;;;;;;7.57;6.80;;;;;;;16.83;98.76;101283.88;4906105;29;20051;-82
2021/08/13 06:18:47;;;;;;;7.80;6.97;;;;;;;16.90;96.29;101284.53;4889557;29;20048;-83
2021/08/13 06:21:14;;;;;;;8.57;7.63;;;;;;;16.99;95.08;101276.19;4888088;29;20106;-85
2021/08/13 06:23:40;;;;;;;6.82;6.18;;;;;;;17.10;93.83;101275.78;4924312;29;20051;-84
2021/08/13 06:26:10;;;;;;;6.68;6.05;;;;;;;17.31;92.19;101272.28;4886481;29;20036;-83
2021/08/13 06:28:38;;;;;;;7.00;6.00;;;;;;;18.60;84.75;101267.88;4919404;29;20757;-83
2021/08/13 06:31:05;;;;;;;7.22;6.28;;;;;;;20.18;72.99;101266.69;4902270;29;20051;-84
2021/08/13 06:33:32;;;;;;;6.70;5.55;;;;;;;21.68;67.40;101278.31;4910296;29;20053;-83
2021/08/13 06:35:58;;;;;;;6.13;5.30;;;;;;;22.83;63.41;101271.50;4911479;29;20047;-81
2021/08/13 06:38:25;;;;;;;5.82;5.22;;;;;;;23.79;59.52;101276.19;4912546;29;20052;-83
2021/08/13 06:40:52;;;;;;;6.82;6.03;;;;;;;24.17;57.98;101280.88;4879501;29;20051;-84
2021/08/13 06:43:18;;;;;;;7.00;5.60;;;;;;;24.55;56.91;101279.16;4896964;29;20048;-81
2021/08/13 06:45:45;;;;;;;6.18;5.57;;;;;;;24.64;57.01;101283.91;4880913;29;20517;-82
2021/08/13 06:48:12;;;;;;;6.95;5.82;;;;;;;24.53;56.64;101274.81;4915476;29;20055;-82
2021/08/13 06:50:39;;;;;;;7.45;6.75;;;;;;;24.26;57.10;101289.22;4889532;29;20513;-83
2021/08/13 06:53:05;;;;;;;6.95;6.25;;;;;;;24.15;57.26;101279.13;4912266;29;20052;-81
2021/08/13 06:55:32;;;;;;;6.88;6.20;;;;;;;24.03;56.54;101276.38;4902119;29;20402;-80
2021/08/13 06:58:01;;;;;;;6.90;6.18;;;;;;;23.76;57.58;101274.56;4904209;29;20051;-80
2021/08/13 07:00:28;;;;;;;6.53;5.90;;;;;;;23.71;58.26;101268.63;4913885;29;20040;-80
2021/08/13 07:02:55;;;;;;;8.25;7.07;;;;;;;23.74;59.14;101267.53;4925223;29;20136;-78
2021/08/13 07:05:23;;;;;;;8.02;6.78;;;;;;;23.69;58.73;101264.25;4913911;29;20076;-83
2021/08/13 07:07:50;;;;;;;7.55;6.85;;;;;;;23.71;59.16;101260.53;4915984;29;20593;-84
2021/08/13 07:10:17;;;;;;;8.27;6.32;;;;;;;23.74;58.40;101267.53;4878790;29;20052;-85
2021/08/13 07:12:44;;;;;;;7.40;6.63;;;;;;;23.71;60.30;101263.22;4915445;29;20052;-83
2021/08/13 07:15:11;;;;;;;6.95;6.07;;;;;;;23.79;60.71;101265.38;4905413;29;20048;-84
2021/08/13 07:17:38;;;;;;;8.38;6.88;;;;;;;23.93;61.09;101262.66;4873048;29;20056;-82
2021/08/13 07:20:06;;;;;;;7.93;7.13;;;;;;;23.96;57.48;101262.44;4870924;29;20048;-82
2021/08/13 07:22:35;;;;;;;7.40;6.70;;;;;;;24.01;59.44;101263.00;4869192;29;20781;-84
2021/08/13 07:25:02;;;;;;;7.47;6.80;;;;;;;24.00;60.29;101271.19;4896655;29;20127;-84
2021/08/13 07:27:28;;;;;;;7.15;6.45;;;;;;;24.00;60.47;101273.91;4870577;29;20047;-84
2021/08/13 07:29:55;;;;;;;6.78;6.18;;;;;;;24.08;59.50;101276.97;4869404;29;20528;-83
2021/08/13 07:32:24;;;;;;;8.73;6.88;;;;;;;24.08;60.29;101267.03;4928187;29;20055;-83
2021/08/13 07:34:51;;;;;;;7.68;6.75;;;;;;;24.11;62.04;101269.50;4886398;29;20044;-84
2021/08/13 07:37:20;;;;;;;8.55;6.68;;;;;;;24.14;60.95;101274.72;4901101;29;20736;-82
2021/08/13 07:39:48;;;;;;;7.60;6.85;;;;;;;24.28;60.35;101270.19;4906175;29;20049;-83
2021/08/13 07:42:16;;;;;;;8.20;7.32;;;;;;;24.50;60.50;101266.94;4933949;23;20505;-81
2021/08/13 07:44:43;;;;;;;7.43;6.72;;;;;;;24.70;59.03;101271.81;4954280;28;20118;-81
2021/08/13 07:47:13;;;;;;;7.40;6.72;;;;;;;24.95;58.03;101270.94;4952302;28;20038;-80
2021/08/13 07:49:40;;;;;;;7.95;7.20;;;;;;;25.15;57.30;101275.84;4972778;28;20042;-80
2021/08/13 07:52:07;;;;;;;7.10;6.40;;;;;;;25.36;56.78;101275.25;4953894;28;20045;-82
2021/08/13 07:54:33;;;;;;;8.13;6.70;;;;;;;25.50;55.31;101267.84;4948238;28;20054;-81
2021/08/13 07:57:00;;;;;;;7.57;6.97;;;;;;;25.57;55.44;101279.09;4940173;28;20042;-80
2021/08/13 07:59:27;;;;;;;8.55;7.05;;;;;;;25.76;54.71;101267.81;4965791;28;20038;-80
2021/08/13 08:01:54;;;;;;;7.15;6.45;;;;;;;25.90;53.99;101275.78;4969406;28;20113;-81
2021/08/13 08:04:20;;;;;;;7.85;6.40;;;;;;;25.97;52.42;101276.16;4960246;28;20619;-81
2021/08/13 08:06:47;;;;;;;8.98;6.95;;;;;;;25.98;51.00;101278.75;4939656;28;20047;-81
2021/08/13 08:09:14;;;;;;;8.82;6.80;;;;;;;25.97;52.42;101279.72;4937176;28;20038;-80
2021/08/13 08:11:40;;;;;;;7.85;6.88;;;;;;;25.83;51.49;101277.19;4963739;28;20043;-80
2021/08/13 08:14:08;;;;;;;7.28;6.60;;;;;;;25.99;50.70;101274.22;4956576;28;20145;-81
2021/08/13 08:16:35;;;;;;;6.75;5.93;;;;;;;26.19;53.41;101275.41;4935313;28;20098;-81
2021/08/13 08:19:03;;;;;;;7.10;6.40;;;;;;;26.30;51.46;101279.00;4956340;28;20522;-81
2021/08/13 08:21:30;;;;;;;6.88;6.15;;;;;;;26.44;49.90;101283.41;4956555;28;20046;-81
2021/08/13 08:23:56;;;;;;;7.22;6.53;;;;;;;26.54;49.72;101286.25;4953743;28;20043;-81
2021/08/13 08:26:23;;;;;;;7.68;6.85;;;;;;;26.59;51.21;101284.94;4945351;28;20051;-81
2021/08/13 08:28:51;;;;;;;7.53;6.82;;;;;;;26.67;49.88;101281.63;4938543;28;20046;-81
2021/08/13 08:31:18;;;;;;;7.28;6.68;;;;;;;26.73;49.25;101278.41;4932837;28;20038;-81
2021/08/13 08:33:45;;;;;;;6.95;5.68;;;;;;;26.80;50.67;101273.38;4922922;28;20051;-82
2021/08/13 08:36:11;;;;;;;7.43;6.40;;;;;;;26.49;48.56;101269.50;4959700;28;20035;-80
2021/08/13 08:38:38;;;;;;;7.45;6.45;;;;;;;26.65;50.24;101276.31;4952442;28;20071;-80
2021/08/13 08:41:06;;;;;;;6.60;5.90;;;;;;;26.76;49.35;101277.31;4942341;28;20050;-80
2021/08/13 08:43:34;;;;;;;7.18;6.40;;;;;;;26.81;48.84;101281.38;4947383;28;20080;-80
2021/08/13 08:46:02;;;;;;;7.65;6.95;;;;;;;26.61;47.61;101277.53;4948157;28;20479;-80
2021/08/13 08:48:33;;;;;;;7.22;6.55;;;;;;;26.52;47.79;101269.25;4955752;28;20078;-80
2021/08/13 08:51:01;;;;;;;7.55;6.50;;;;;;;26.87;46.62;101277.34;4973365;28;20051;-80
2021/08/13 08:53:29;;;;;;;6.18;5.63;;;;;;;27.02;49.84;101273.41;4954255;28;20050;-80
2021/08/13 08:55:56;;;;;;;7.85;6.18;;;;;;;27.22;48.30;101271.81;4952297;28;20041;-80
2021/08/13 08:58:24;;;;;;;6.47;5.88;;;;;;;27.44;48.27;101270.97;4948044;28;20043;-81
2021/08/13 09:00:51;;;;;;;6.80;6.15;;;;;;;27.59;46.69;101268.84;4949193;28;20047;-81
2021/08/13 09:03:21;;;;;;;7.00;6.00;;;;;;;27.68;44.95;101268.13;4971840;28;20042;-82
2021/08/13 09:05:49;;;;;;;5.78;5.20;;;;;;;27.78;45.98;101269.06;4950250;28;20042;-82
2021/08/13 09:08:16;;;;;;;6.07;5.53;;;;;;;27.89;45.51;101266.31;4933016;28;20039;-81
2021/08/13 09:10:44;;;;;;;5.90;5.32;;;;;;;28.09;46.05;101263.78;4933124;28;20078;-81
2021/08/13 09:13:11;;;;;;;7.63;5.93;;;;;;;27.99;42.92;101263.69;4933852;28;20101;-81
2021/08/13 09:15:42;;;;;;;6.10;5.22;;;;;;;28.22;44.08;101262.59;4949127;28;20042;-82
2021/08/13 09:18:23;;;;;;;5.68;5.13;;;;;;;28.35;44.38;101258.88;4950785;28;20046;-82
2021/08/13 09:20:58;;;;;;;7.53;6.00;;;;;;;28.53;43.35;101269.03;4929307;28;20572;-83
2021/08/13 09:23:34;;;;;;;5.78;5.18;;;;;;;28.72;44.00;101267.41;4931866;28;20133;-82
2021/08/13 09:26:17;;;;;;;7.88;6.18;;;;;;;28.64;42.41;101270.81;4950669;28;20047;-83
2021/08/13 09:29:02;;;;;;;8.07;5.93;;;;;;;28.85;43.32;101265.34;4964842;28;20051;-82
2021/08/13 09:31:34;;;;;;;8.18;5.50;;;;;;;29.05;42.63;101274.50;4945652;28;20042;-82
2021/08/13 09:34:12;;;;;;;6.75;5.32;;;;;;;29.09;42.18;101278.66;4930752;28;20097;-82
2021/08/13 09:36:51;;;;;;;5.82;4.85;;;;;;;29.23;42.94;101286.47;4982286;28;20034;-80
2021/08/13 09:39:25;;;;;;;5.90;5.35;;;;;;;29.28;41.73;101276.03;4961642;28;20058;-81
2021/08/13 09:41:56;;;;;;;7.20;5.40;;;;;;;29.44;41.74;101278.25;4951427;28;20112;-82
2021/08/13 09:44:26;;;;;;;5.82;4.90;;;;;;;29.25;39.95;101272.72;4958687;28;20046;-80
2021/08/13 09:46:58;;;;;;;6.88;5.10;;;;;;;29.25;41.10;101272.72;4945492;28;20057;-80
2021/08/13 09:49:26;;;;;;;6.30;5.25;;;;;;;29.31;42.14;101266.72;4937585;28;20051;-82
2021/08/13 09:51:53;;;;;;;5.40;4.90;;;;;;;29.41;41.86;101268.47;4955227;28;20053;-81
2021/08/13 09:54:26;;;;;;;6.15;5.13;;;;;;;29.47;41.60;101267.06;4966747;28;20092;-82
2021/08/13 09:56:53;;;;;;;7.30;5.30;;;;;;;29.60;40.01;101259.56;4938986;28;20058;-81
2021/08/13 09:59:20;;;;;;;5.40;4.72;;;;;;;29.78;39.35;101264.31;4958182;28;20050;-81
2021/08/13 10:01:49;;;;;;;6.43;4.95;;;;;;;29.84;39.92;101264.59;4964269;28;20128;-80
2021/08/13 10:04:31;;;;;;;11.25;5.57;;;;;;;29.77;39.66;101263.44;4968746;28;20047;-81
2021/08/13 10:06:58;;;;;;;6.40;5.03;;;;;;;29.92;40.13;101255.72;4945972;28;20039;-80
2021/08/13 10:09:26;;;;;;;8.73;5.22;;;;;;;30.10;39.53;101256.78;4924146;28;20051;-81
2021/08/13 10:12:07;;;;;;;6.60;5.53;;;;;;;30.25;39.98;101249.84;4935857;28;20487;-81
2021/08/13 10:14:38;;;;;;;7.00;5.53;;;;;;;30.29;39.65;101253.16;4940738;28;20113;-81
2021/08/13 10:17:06;;;;;;;6.65;5.53;;;;;;;29.61;40.51;101242.22;4967232;28;20138;-81
2021/08/13 10:19:33;;;;;;;9.63;6.70;;;;;;;29.76;40.20;101249.94;4968482;28;20053;-83
2021/08/13 10:22:00;;;;;;;6.50;5.68;;;;;;;29.87;40.18;101252.56;4929737;28;20042;-80
2021/08/13 10:24:28;;;;;;;5.95;5.35;;;;;;;29.91;39.96;101249.41;4963571;28;20559;-82
2021/08/13 10:30:48;;;;;;;6.70;5.43;;;;;;;30.15;40.74;101242.69;4957747;28;20507;-81
2021/08/13 10:33:17;;;;;;;7.88;5.85;;;;;;;30.27;39.73;101247.88;4939618;28;20108;-81
2021/08/13 10:35:51;;;;;;;5.72;5.18;;;;;;;30.16;39.20;101239.81;4942910;28;20054;-81
2021/08/13 10:38:21;;;;;;;6.05;5.45;;;;;;;30.39;38.45;101247.72;4934381;28;20047;-82
2021/08/13 10:40:49;;;;;;;5.70;5.20;;;;;;;30.43;39.27;101240.94;4941335;28;20046;-80
2021/08/13 10:43:17;;;;;;;5.90;5.30;;;;;;;30.62;39.41;101240.94;4941530;28;20047;-80
2021/08/13 10:45:47;;;;;;;8.50;5.38;;;;;;;30.24;38.30;101237.25;4948640;28;20046;-81
2021/08/13 10:48:24;;;;;;;6.65;5.13;;;;;;;30.49;40.03;101230.31;4932308;28;20039;-80
2021/08/13 10:51:00;;;;;;;7.07;5.30;;;;;;;30.71;39.91;101231.88;4942572;28;20050;-81
2021/08/13 10:54:03;;;;;;;6.13;5.28;;;;;;;30.85;39.40;101226.94;4965620;28;20061;-83
2021/08/13 10:56:38;;;;;;;5.70;5.20;;;;;;;30.83;37.70;101222.50;4957305;28;20039;-82
2021/08/13 10:59:04;;;;;;;6.90;6.28;;;;;;;30.69;38.79;101231.19;4960262;28;20507;-81
2021/08/13 11:01:31;;;;;;;6.20;5.38;;;;;;;30.65;37.96;101227.00;4955141;28;20054;-83
2021/08/13 11:03:58;;;;;;;6.43;5.47;;;;;;;30.66;39.15;101234.19;4939198;28;20039;-82
2021/08/13 11:06:42;;;;;;;6.15;5.53;;;;;;;30.75;38.83;101227.84;4963851;28;20050;-82
2021/08/13 11:09:22;;;;;;;5.85;4.93;;;;;;;30.92;38.89;101228.94;4954294;28;20053;-81
2021/08/13 11:11:51;;;;;;;5.97;4.97;;;;;;;31.11;39.56;101228.00;4987066;28;20054;-81
2021/08/13 11:14:26;;;;;;;7.63;5.88;;;;;;;30.99;37.39;101212.81;4951788;28;20061;-81
2021/08/13 11:16:53;;;;;;;6.25;5.35;;;;;;;31.15;38.24;101218.50;4939978;28;20097;-82
2021/08/13 11:19:21;;;;;;;6.43;5.50;;;;;;;31.16;37.71;101220.22;4935716;28;20046;-81
2021/08/13 11:21:53;;;;;;;7.13;5.40;;;;;;;30.90;38.28;101211.00;4934085;28;20038;-82
2021/08/13 11:24:23;;;;;;;6.78;5.85;;;;;;;30.64;38.61;101225.25;4949316;28;20458;-81
2021/08/13 11:26:58;;;;;;;6.25;5.65;;;;;;;30.59;40.06;101215.78;4949368;28;20054;-81
2021/08/13 11:29:34;;;;;;;6.45;5.85;;;;;;;30.50;39.88;101212.94;4967831;28;20134;-81
2021/08/13 11:32:01;;;;;;;6.90;5.70;;;;;;;30.52;40.92;101207.34;4966127;28;20058;-81
2021/08/13 11:34:47;;;;;;;6.80;5.95;;;;;;;30.50;39.47;101202.03;4967504;28;20053;-81